Time;durP1;ratioP1;P1;durP2;ratioP2;P2;SDS_P1;SDS_P2;PMS_P1;PMS_P2;Temp;Humidity;BMP_temperature;BMP_pressure;BME280_temperature;BME280_humidity;BME280_pressure;Samples;Min_cycle;Max_cycle;Signal;HPM_P1;HPM_P2
2023/05/03 00:02:01;;;;;;;20.08;2.40;;;29.40;29.30;;;;;;5023718;28;20058;-68
2023/05/03 00:04:27;;;;;;;16.10;2.65;;;29.30;28.80;;;;;;5022371;28;20072;-66
2023/05/03 00:06:54;;;;;;;23.60;2.53;;;29.30;29.10;;;;;;5028340;28;20088;-66
2023/05/03 00:09:21;;;;;;;15.98;2.65;;;29.40;29.40;;;;;;5027948;28;20057;-67
2023/05/03 00:11:47;;;;;;;13.73;1.98;;;29.40;28.90;;;;;;5024942;28;20379;-66
2023/05/03 00:14:14;;;;;;;17.98;2.67;;;29.40;28.80;;;;;;5024250;28;20101;-66
2023/05/03 00:16:40;;;;;;;15.73;2.47;;;29.40;28.90;;;;;;5025663;28;20055;-66
2023/05/03 00:19:07;;;;;;;19.23;2.15;;;29.30;28.90;;;;;;5025412;28;20074;-65
2023/05/03 00:21:33;;;;;;;16.27;2.35;;;29.10;28.70;;;;;;5023536;28;20136;-67
2023/05/03 00:24:00;;;;;;;13.45;2.17;;;28.90;28.90;;;;;;5027281;28;20073;-65
2023/05/03 00:26:27;;;;;;;14.20;2.22;;;28.90;28.80;;;;;;5022947;28;20595;-67
2023/05/03 00:28:54;;;;;;;10.75;2.28;;;28.90;29.00;;;;;;5024904;28;20072;-67
2023/05/03 00:31:20;;;;;;;18.33;2.53;;;28.90;28.90;;;;;;5017035;28;20070;-67
2023/05/03 00:33:46;;;;;;;16.15;2.20;;;28.90;28.80;;;;;;5020500;28;20078;-67
2023/05/03 00:36:14;;;;;;;13.32;2.45;;;28.90;29.30;;;;;;5026434;28;20475;-66
2023/05/03 00:38:41;;;;;;;19.85;2.30;;;28.80;28.90;;;;;;5021836;28;20067;-65
2023/05/03 00:41:09;;;;;;;16.55;2.30;;;28.80;28.70;;;;;;5021359;28;20544;-64
2023/05/03 00:43:36;;;;;;;14.23;2.80;;;28.60;28.90;;;;;;5015655;28;20154;-65
2023/05/03 00:46:05;;;;;;;13.52;3.50;;;28.50;29.10;;;;;;5019312;28;20065;-65
2023/05/03 00:48:33;;;;;;;16.52;2.42;;;28.50;29.50;;;;;;5020541;28;20092;-63
2023/05/03 00:51:01;;;;;;;12.02;2.20;;;28.50;29.10;;;;;;5024627;28;20478;-64
2023/05/03 00:53:30;;;;;;;16.08;2.38;;;28.50;29.30;;;;;;5020513;28;20424;-63
2023/05/03 00:56:00;;;;;;;14.60;2.30;;;28.30;29.30;;;;;;5018843;28;20051;-64
2023/05/03 00:58:26;;;;;;;18.23;2.55;;;28.20;29.20;;;;;;5019539;28;20115;-64
2023/05/03 01:00:53;;;;;;;12.65;1.80;;;28.10;30.30;;;;;;5019371;28;20062;-62
2023/05/03 01:03:19;;;;;;;17.17;2.50;;;28.10;30.90;;;;;;5020503;28;20480;-63
2023/05/03 01:05:59;;;;;;;13.43;2.25;;;28.00;31.20;;;;;;5019595;28;20063;-63
2023/05/03 01:08:45;;;;;;;48.53;4.88;;;27.90;30.40;;;;;;5019188;28;20068;-63
2023/05/03 01:11:21;;;;;;;13.38;2.20;;;27.90;30.60;;;;;;5016729;28;20039;-67
2023/05/03 01:14:26;;;;;;;16.80;2.45;;;27.70;30.00;;;;;;5017849;28;20571;-65
2023/05/03 01:16:59;;;;;;;8.95;1.58;;;27.70;30.20;;;;;;5015239;28;20529;-60
2023/05/03 01:19:34;;;;;;;11.57;1.90;;;27.70;30.60;;;;;;5020005;28;20088;-60
2023/05/03 01:22:21;;;;;;;11.88;1.67;;;27.70;30.30;;;;;;5020034;28;20115;-63
2023/05/03 01:24:59;;;;;;;14.23;1.98;;;27.60;30.30;;;;;;5019209;28;20153;-64
2023/05/03 01:27:25;;;;;;;12.80;1.83;;;27.60;30.40;;;;;;5018112;28;20068;-64
2023/05/03 01:29:51;;;;;;;9.10;2.05;;;27.50;30.30;;;;;;5020250;28;20099;-60
2023/05/03 01:32:26;;;;;;;12.05;2.17;;;27.60;30.30;;;;;;5017190;28;20066;-60
2023/05/03 01:35:03;;;;;;;19.58;8.57;;;27.50;30.00;;;;;;5016843;28;20837;-65
2023/05/03 01:37:31;;;;;;;8.45;1.70;;;27.60;30.30;;;;;;5016702;28;20073;-63
2023/05/03 01:40:03;;;;;;;7.38;1.70;;;27.50;30.40;;;;;;5018933;28;20422;-63
2023/05/03 01:42:30;;;;;;;19.10;2.25;;;27.40;30.30;;;;;;5019286;28;20090;-62
2023/05/03 01:44:59;;;;;;;12.35;2.15;;;27.40;30.70;;;;;;5018426;28;20076;-63
2023/05/03 01:47:25;;;;;;;13.73;2.13;;;27.30;30.90;;;;;;5026088;28;20078;-59
2023/05/03 01:49:52;;;;;;;10.60;1.92;;;27.40;31.00;;;;;;5013600;28;20526;-61
2023/05/03 01:52:18;;;;;;;6.93;1.80;;;27.30;31.10;;;;;;5025827;28;20136;-63
2023/05/03 01:54:45;;;;;;;12.68;1.92;;;27.10;31.80;;;;;;5029316;28;20090;-63
2023/05/03 01:57:11;;;;;;;20.10;1.90;;;26.90;31.80;;;;;;5022634;28;20093;-65
2023/05/03 01:59:37;;;;;;;18.63;2.13;;;26.80;32.00;;;;;;5028038;28;20083;-64
2023/05/03 02:02:04;;;;;;;18.15;2.30;;;26.60;32.20;;;;;;5029948;28;20096;-64
2023/05/03 02:04:30;;;;;;;12.77;1.80;;;26.50;32.40;;;;;;5030520;28;20066;-65
2023/05/03 02:06:57;;;;;;;12.80;1.88;;;26.40;33.00;;;;;;5026350;28;20871;-63
2023/05/03 02:09:24;;;;;;;15.80;2.20;;;26.30;33.50;;;;;;5021575;28;20071;-64
2023/05/03 02:11:50;;;;;;;12.63;2.40;;;26.20;33.50;;;;;;5026853;28;20148;-64
2023/05/03 02:14:17;;;;;;;14.55;2.70;;;26.20;33.50;;;;;;5006298;28;20121;-60
2023/05/03 02:16:43;;;;;;;16.45;2.22;;;26.00;33.60;;;;;;5031166;28;20087;-65
2023/05/03 02:19:10;;;;;;;17.65;2.97;;;25.90;34.40;;;;;;5028549;28;20603;-63
2023/05/03 02:21:37;;;;;;;22.20;3.17;;;25.80;37.20;;;;;;5029598;28;20066;-64
2023/05/03 02:24:04;;;;;;;20.42;2.85;;;25.60;38.90;;;;;;5029124;28;20071;-65
2023/05/03 02:26:30;;;;;;;17.13;2.85;;;25.50;39.90;;;;;;5030993;28;20428;-65
2023/05/03 02:28:57;;;;;;;21.23;3.22;;;25.30;40.40;;;;;;5028710;28;20520;-61
2023/05/03 02:31:24;;;;;;;20.70;2.88;;;25.20;40.90;;;;;;5027088;28;20076;-59
2023/05/03 02:33:50;;;;;;;13.63;2.90;;;25.20;41.20;;;;;;5020845;28;20080;-65
2023/05/03 02:36:17;;;;;;;16.15;2.97;;;24.90;41.70;;;;;;5028205;28;20155;-62
2023/05/03 02:38:43;;;;;;;15.57;2.85;;;24.80;42.20;;;;;;5020968;28;20097;-65
2023/05/03 02:41:10;;;;;;;21.05;2.75;;;24.60;42.70;;;;;;5010669;28;20064;-66
2023/05/03 02:43:36;;;;;;;14.82;2.28;;;24.50;43.00;;;;;;5023605;28;20547;-65
2023/05/03 02:46:02;;;;;;;15.40;2.83;;;24.40;43.20;;;;;;5026609;28;20513;-64
2023/05/03 02:48:29;;;;;;;20.63;3.40;;;24.30;43.60;;;;;;5032076;28;20083;-64
2023/05/03 02:50:55;;;;;;;11.45;2.55;;;24.10;43.80;;;;;;5022264;28;20086;-61
2023/05/03 02:53:22;;;;;;;19.92;3.33;;;24.00;44.20;;;;;;5023043;28;20092;-65
2023/05/03 02:55:49;;;;;;;17.42;2.67;;;23.90;44.60;;;;;;5007171;28;20085;-64
2023/05/03 02:58:15;;;;;;;17.02;2.55;;;23.80;45.00;;;;;;5020649;28;20084;-65
2023/05/03 03:00:43;;;;;;;10.10;2.65;;;23.60;45.40;;;;;;5023140;28;20123;-65
2023/05/03 03:03:10;;;;;;;19.15;2.83;;;23.50;45.80;;;;;;5018174;28;20065;-62
2023/05/03 03:05:36;;;;;;;13.88;2.92;;;23.50;46.20;;;;;;5019401;28;20071;-68
2023/05/03 03:08:04;;;;;;;20.77;2.67;;;23.30;46.50;;;;;;5008934;28;20348;-65
2023/05/03 03:10:31;;;;;;;19.45;2.55;;;23.10;46.70;;;;;;5021549;28;20069;-67
2023/05/03 03:12:58;;;;;;;19.52;2.50;;;23.00;47.10;;;;;;5022420;28;20105;-67
2023/05/03 03:15:24;;;;;;;26.17;3.13;;;22.80;47.40;;;;;;5020649;28;20588;-69
2023/05/03 03:17:51;;;;;;;20.15;2.65;;;22.70;47.50;;;;;;5029976;28;20144;-65
2023/05/03 03:20:17;;;;;;;16.83;2.22;;;22.50;47.70;;;;;;5023468;28;20097;-66
2023/05/03 03:22:44;;;;;;;19.33;3.38;;;22.40;48.10;;;;;;5021660;28;20163;-66
2023/05/03 03:25:10;;;;;;;13.77;2.35;;;22.40;48.10;;;;;;5022823;28;20080;-66
2023/05/03 03:27:37;;;;;;;15.95;2.70;;;22.30;48.10;;;;;;5025686;28;20127;-68
2023/05/03 03:30:03;;;;;;;18.60;2.63;;;22.20;48.30;;;;;;5027119;28;20077;-70
2023/05/03 03:32:30;;;;;;;16.90;2.25;;;22.20;48.30;;;;;;5020496;28;20486;-66
2023/05/03 03:34:56;;;;;;;15.18;2.10;;;22.10;48.60;;;;;;5029189;28;20073;-67
2023/05/03 03:37:22;;;;;;;15.02;2.40;;;22.00;48.70;;;;;;5029660;28;20201;-66
2023/05/03 03:39:49;;;;;;;14.85;2.35;;;22.00;48.70;;;;;;5028216;28;20438;-67
2023/05/03 03:42:15;;;;;;;23.63;3.10;;;21.80;48.70;;;;;;5025259;28;20529;-65
2023/05/03 03:44:42;;;;;;;18.63;2.35;;;21.80;48.90;;;;;;5024474;28;20526;-64
2023/05/03 03:47:08;;;;;;;15.63;2.60;;;21.70;49.10;;;;;;5029512;28;20527;-71
2023/05/03 03:49:35;;;;;;;18.02;3.17;;;21.60;49.20;;;;;;5028441;28;20096;-67
2023/05/03 03:52:01;;;;;;;19.90;2.50;;;21.50;49.40;;;;;;5025057;28;20076;-67
2023/05/03 03:54:27;;;;;;;16.52;2.10;;;21.50;49.60;;;;;;5027300;28;20543;-66
2023/05/03 03:56:54;;;;;;;14.80;2.22;;;21.40;49.70;;;;;;5022633;28;20099;-66
2023/05/03 03:59:20;;;;;;;21.05;2.67;;;21.40;49.80;;;;;;5025595;28;20155;-66
2023/05/03 04:01:47;;;;;;;12.30;2.58;;;21.30;49.80;;;;;;5029380;28;20069;-62
2023/05/03 04:04:13;;;;;;;11.23;2.53;;;21.30;49.90;;;;;;5028942;28;20166;-65
2023/05/03 04:06:39;;;;;;;15.95;2.45;;;21.30;50.00;;;;;;5027104;28;20533;-70
2023/05/03 04:09:06;;;;;;;12.10;2.08;;;21.20;50.10;;;;;;5023279;28;20548;-69
2023/05/03 04:11:32;;;;;;;20.65;3.08;;;21.20;50.20;;;;;;5024377;28;20077;-67
2023/05/03 04:13:59;;;;;;;13.90;1.95;;;21.10;50.40;;;;;;5022146;28;20113;-67
2023/05/03 04:16:25;;;;;;;11.35;2.17;;;21.00;50.60;;;;;;5022640;28;20080;-67
2023/05/03 04:18:52;;;;;;;16.98;2.70;;;21.00;50.70;;;;;;5027748;28;20096;-65
2023/05/03 04:21:18;;;;;;;15.20;2.92;;;21.00;50.60;;;;;;5028670;28;20072;-63
2023/05/03 04:23:45;;;;;;;10.60;2.58;;;21.00;50.70;;;;;;5026506;28;20080;-67
2023/05/03 04:26:11;;;;;;;20.20;2.78;;;20.90;50.60;;;;;;5023988;28;20083;-65
2023/05/03 04:28:38;;;;;;;14.30;2.22;;;20.90;50.90;;;;;;5027252;28;20073;-65
2023/05/03 04:31:05;;;;;;;13.65;2.65;;;20.90;50.90;;;;;;5026675;28;20089;-64
2023/05/03 04:33:31;;;;;;;15.52;2.72;;;20.90;51.00;;;;;;5022203;28;20075;-70
2023/05/03 04:35:58;;;;;;;11.43;2.13;;;20.80;50.90;;;;;;5025744;28;20448;-68
2023/05/03 04:38:24;;;;;;;18.27;2.60;;;20.80;51.00;;;;;;5026717;28;20069;-68
2023/05/03 04:40:50;;;;;;;12.77;2.50;;;20.80;51.00;;;;;;5024730;28;20440;-67
2023/05/03 04:43:17;;;;;;;15.15;3.08;;;20.80;50.80;;;;;;5024167;28;20065;-66
2023/05/03 04:45:43;;;;;;;13.65;2.60;;;20.80;51.00;;;;;;5025218;28;20073;-67
2023/05/03 04:48:10;;;;;;;13.30;2.97;;;20.70;51.10;;;;;;5018572;28;20070;-66
2023/05/03 04:50:36;;;;;;;14.90;2.65;;;20.60;51.20;;;;;;5016829;28;20081;-65
2023/05/03 04:53:03;;;;;;;17.33;2.72;;;20.60;51.30;;;;;;5023584;28;20069;-64
2023/05/03 04:55:29;;;;;;;16.00;2.40;;;20.60;51.30;;;;;;5018937;28;20073;-66
2023/05/03 04:57:56;;;;;;;17.40;2.10;;;20.60;51.30;;;;;;5019984;28;20139;-64
2023/05/03 05:00:22;;;;;;;8.88;2.10;;;20.60;51.20;;;;;;5026255;28;20087;-65
2023/05/03 05:02:48;;;;;;;9.95;2.60;;;20.60;51.40;;;;;;5016489;28;20079;-67
2023/05/03 05:05:15;;;;;;;13.77;2.53;;;20.50;51.40;;;;;;5019810;28;20103;-65
2023/05/03 05:07:42;;;;;;;16.08;2.78;;;20.50;51.50;;;;;;5020407;28;20138;-64
2023/05/03 05:10:09;;;;;;;17.75;2.50;;;20.50;51.60;;;;;;5018390;28;20557;-67
2023/05/03 05:12:35;;;;;;;16.27;2.40;;;20.50;51.70;;;;;;5020704;28;20144;-62
2023/05/03 05:15:03;;;;;;;17.25;2.35;;;20.50;51.80;;;;;;5017827;28;20111;-64
2023/05/03 05:17:29;;;;;;;14.43;2.47;;;20.50;51.80;;;;;;5022727;28;20135;-66
2023/05/03 05:19:55;;;;;;;30.73;2.50;;;20.50;51.60;;;;;;5026645;28;20143;-66
2023/05/03 05:22:22;;;;;;;14.25;2.33;;;20.50;52.00;;;;;;5018796;28;20070;-64
2023/05/03 05:24:48;;;;;;;8.40;2.10;;;20.50;51.90;;;;;;5018557;28;20119;-67
2023/05/03 05:27:15;;;;;;;13.68;2.30;;;20.40;51.90;;;;;;5023407;28;20637;-67
2023/05/03 05:29:41;;;;;;;18.75;2.72;;;20.40;52.00;;;;;;5029690;28;20085;-65
2023/05/03 05:32:07;;;;;;;11.52;2.33;;;20.30;52.40;;;;;;5027423;28;20080;-66
2023/05/03 05:34:34;;;;;;;11.95;2.40;;;20.20;52.50;;;;;;5027836;28;20106;-67
2023/05/03 05:37:00;;;;;;;12.30;2.42;;;20.20;52.50;;;;;;5031881;28;20167;-65
2023/05/03 05:39:26;;;;;;;15.82;2.78;;;20.20;52.40;;;;;;5030677;28;20084;-68
2023/05/03 05:41:53;;;;;;;8.65;1.90;;;20.10;52.70;;;;;;5028329;28;20594;-66
2023/05/03 05:44:19;;;;;;;10.20;2.30;;;20.00;53.10;;;;;;5027509;28;20073;-66
2023/05/03 05:46:45;;;;;;;13.75;2.17;;;19.90;53.40;;;;;;5032636;28;20131;-66
2023/05/03 05:49:12;;;;;;;9.02;2.17;;;19.70;53.40;;;;;;5032602;28;20503;-65
2023/05/03 05:51:40;;;;;;;11.32;2.03;;;19.70;53.80;;;;;;5031437;28;20103;-63
2023/05/03 05:54:06;;;;;;;13.75;1.60;;;19.70;53.50;;;;;;5027110;28;20489;-66
2023/05/03 05:56:33;;;;;;;7.70;1.90;;;19.70;53.10;;;;;;5026196;28;20180;-67
2023/05/03 05:58:59;;;;;;;10.80;2.22;;;19.60;53.00;;;;;;5028780;28;20511;-64
2023/05/03 06:01:26;;;;;;;10.48;2.30;;;19.60;52.80;;;;;;5030234;28;20069;-64
2023/05/03 06:03:52;;;;;;;6.78;2.25;;;19.60;52.80;;;;;;5027869;28;20160;-64
2023/05/03 06:06:19;;;;;;;14.13;2.33;;;19.50;53.00;;;;;;5028972;28;20109;-62
2023/05/03 06:08:48;;;;;;;8.35;1.98;;;19.60;52.70;;;;;;5032099;28;20127;-62
2023/05/03 06:11:16;;;;;;;8.18;2.55;;;19.60;52.80;;;;;;5028964;28;20081;-65
2023/05/03 06:13:42;;;;;;;10.73;1.88;;;19.60;52.40;;;;;;5022430;28;20123;-63
2023/05/03 06:16:10;;;;;;;10.23;2.00;;;19.50;52.40;;;;;;5021970;28;20081;-61
2023/05/03 06:18:37;;;;;;;8.65;2.00;;;19.50;51.90;;;;;;5021295;28;20092;-64
2023/05/03 06:21:04;;;;;;;17.25;2.47;;;19.40;52.20;;;;;;5019193;28;20525;-63
2023/05/03 06:23:32;;;;;;;8.95;1.85;;;19.40;52.00;;;;;;5022164;28;20074;-63
2023/05/03 06:25:58;;;;;;;8.60;1.75;;;19.40;52.00;;;;;;5023094;28;20148;-64
2023/05/03 06:28:25;;;;;;;12.13;2.90;;;19.40;51.90;;;;;;5022877;28;20502;-66
2023/05/03 06:30:51;;;;;;;11.27;2.33;;;19.10;52.00;;;;;;5021075;28;20082;-66
2023/05/03 06:33:17;;;;;;;11.60;2.38;;;19.20;52.20;;;;;;5027252;28;20107;-65
2023/05/03 06:35:46;;;;;;;7.05;1.80;;;19.00;51.90;;;;;;5021845;28;20065;-63
2023/05/03 06:38:12;;;;;;;8.27;2.00;;;19.10;51.80;;;;;;5025465;28;20069;-65
2023/05/03 06:40:40;;;;;;;10.25;2.17;;;19.10;51.90;;;;;;5021117;28;20085;-62
2023/05/03 06:43:07;;;;;;;15.95;2.17;;;19.10;51.70;;;;;;5019652;28;20159;-64
2023/05/03 06:45:33;;;;;;;14.02;1.88;;;19.00;52.10;;;;;;5022509;28;20073;-60
2023/05/03 06:47:59;;;;;;;12.40;2.10;;;18.90;52.20;;;;;;5021257;28;20096;-65
2023/05/03 06:50:26;;;;;;;8.93;2.13;;;18.80;52.50;;;;;;5022018;28;20348;-63
2023/05/03 06:52:53;;;;;;;10.27;2.30;;;18.80;52.80;;;;;;5022561;28;20156;-67
2023/05/03 06:55:20;;;;;;;12.90;2.22;;;18.70;52.80;;;;;;5021453;28;20207;-61
2023/05/03 06:57:51;;;;;;;12.32;2.15;;;18.80;53.20;;;;;;5020897;28;20096;-65
2023/05/03 07:00:18;;;;;;;11.07;2.67;;;18.70;53.10;;;;;;5008675;28;20081;-65
2023/05/03 07:02:45;;;;;;;8.93;1.63;;;18.70;52.90;;;;;;5022328;28;20073;-65
2023/05/03 07:05:11;;;;;;;10.85;2.00;;;18.70;52.80;;;;;;5021786;28;20069;-66
2023/05/03 07:07:38;;;;;;;8.75;2.10;;;18.70;53.10;;;;;;5020719;28;20077;-61
2023/05/03 07:10:05;;;;;;;12.98;1.90;;;18.70;53.10;;;;;;5020671;28;20101;-66
2023/05/03 07:12:32;;;;;;;6.68;1.42;;;18.70;53.60;;;;;;5021517;28;20143;-64
2023/05/03 07:14:58;;;;;;;13.88;2.33;;;18.60;53.70;;;;;;5023467;28;20113;-66
2023/05/03 07:17:25;;;;;;;11.60;1.95;;;18.50;54.10;;;;;;5021588;28;20076;-66
2023/05/03 07:19:53;;;;;;;10.02;1.80;;;18.40;54.50;;;;;;5020155;28;20116;-66
2023/05/03 07:22:23;;;;;;;6.68;1.83;;;18.40;54.80;;;;;;5020839;28;20073;-65
2023/05/03 07:24:58;;;;;;;8.77;2.05;;;18.20;55.00;;;;;;5020677;28;20095;-65
2023/05/03 07:27:25;;;;;;;10.40;1.80;;;18.30;55.00;;;;;;5002480;28;20069;-63
2023/05/03 07:29:52;;;;;;;6.85;1.80;;;18.20;55.10;;;;;;5009171;28;20163;-61
2023/05/03 07:32:18;;;;;;;8.52;1.63;;;18.10;55.30;;;;;;5023768;28;20090;-62
2023/05/03 07:34:45;;;;;;;6.95;1.73;;;17.90;55.70;;;;;;5019080;28;20092;-64
2023/05/03 07:37:11;;;;;;;7.10;2.10;;;18.00;56.00;;;;;;5021117;28;20101;-62
2023/05/03 07:39:39;;;;;;;15.73;1.90;;;17.90;55.90;;;;;;5021739;28;20124;-62
2023/05/03 07:42:06;;;;;;;11.55;2.60;;;17.90;55.60;;;;;;5020809;28;20081;-63
2023/05/03 07:44:32;;;;;;;13.15;2.42;;;18.00;55.40;;;;;;5018983;28;20101;-63
2023/05/03 07:46:59;;;;;;;5.70;1.75;;;18.00;55.20;;;;;;5020433;28;20095;-62
2023/05/03 07:49:25;;;;;;;10.48;2.03;;;18.00;55.00;;;;;;5020031;28;20095;-63
2023/05/03 07:51:52;;;;;;;10.43;2.17;;;18.00;54.70;;;;;;5019308;28;21959;-63
2023/05/03 07:54:18;;;;;;;10.18;1.85;;;17.90;54.60;;;;;;5019728;28;20089;-59
2023/05/03 07:56:44;;;;;;;12.15;2.10;;;17.90;54.70;;;;;;5019059;28;20097;-62
2023/05/03 07:59:11;;;;;;;8.38;2.08;;;17.90;54.50;;;;;;5021899;28;20120;-63
2023/05/03 08:01:37;;;;;;;4.72;1.73;;;17.90;54.50;;;;;;5019828;28;20069;-60
2023/05/03 08:04:04;;;;;;;7.60;1.83;;;17.90;54.30;;;;;;5019953;28;20095;-60
2023/05/03 08:06:31;;;;;;;10.30;2.20;;;17.80;54.50;;;;;;5018936;28;20070;-64
2023/05/03 08:08:58;;;;;;;12.25;2.50;;;17.90;54.40;;;;;;5020911;28;20215;-61
2023/05/03 08:11:27;;;;;;;4.43;1.70;;;17.90;54.30;;;;;;5021113;28;20081;-60
2023/05/03 08:13:54;;;;;;;8.60;2.10;;;17.80;54.20;;;;;;5020542;28;20508;-62
2023/05/03 08:16:20;;;;;;;5.80;2.00;;;17.80;54.00;;;;;;5020826;28;20138;-64
2023/05/03 08:18:47;;;;;;;11.07;2.45;;;17.80;53.90;;;;;;5019210;28;20085;-62
2023/05/03 08:21:13;;;;;;;10.63;2.17;;;17.80;53.70;;;;;;5018229;28;20069;-62
2023/05/03 08:23:40;;;;;;;13.93;2.20;;;17.80;53.40;;;;;;5017919;28;20097;-61
2023/05/03 08:26:08;;;;;;;9.63;2.00;;;17.80;52.50;;;;;;5019068;28;20521;-64
2023/05/03 08:28:34;;;;;;;9.00;1.92;;;17.90;52.30;;;;;;5019435;28;20077;-64
2023/05/03 08:31:04;;;;;;;9.02;2.00;;;17.90;52.30;;;;;;5020836;28;20427;-62
2023/05/03 08:33:30;;;;;;;22.60;12.65;;;17.90;52.30;;;;;;5020216;28;20073;-63
2023/05/03 08:35:57;;;;;;;11.60;2.50;;;17.80;52.20;;;;;;5020640;28;20065;-62
2023/05/03 08:38:23;;;;;;;8.02;2.00;;;17.90;52.30;;;;;;5021191;28;20149;-60
2023/05/03 08:40:57;;;;;;;11.52;1.98;;;17.80;52.00;;;;;;5003979;28;20069;-60
2023/05/03 08:43:26;;;;;;;4.65;1.33;;;17.80;52.40;;;;;;5019608;28;20073;-63
2023/05/03 08:45:52;;;;;;;9.75;1.95;;;17.90;51.80;;;;;;5019183;28;20160;-60
2023/05/03 08:48:19;;;;;;;7.00;1.75;;;17.90;51.50;;;;;;5018679;28;20107;-58
2023/05/03 08:50:46;;;;;;;6.22;1.98;;;17.80;51.70;;;;;;5018717;28;20092;-62
2023/05/03 08:53:12;;;;;;;5.70;1.70;;;17.80;51.80;;;;;;5020988;28;20115;-60
2023/05/03 08:55:39;;;;;;;6.60;2.00;;;17.80;51.70;;;;;;5018755;28;20075;-59
2023/05/03 08:58:11;;;;;;;6.22;1.75;;;17.80;51.60;;;;;;5020598;28;20092;-61
2023/05/03 09:00:40;;;;;;;4.35;1.50;;;17.80;51.40;;;;;;5018775;28;20127;-63
2023/05/03 09:03:06;;;;;;;5.07;1.60;;;17.70;51.30;;;;;;5024410;28;20089;-64
2023/05/03 09:05:37;;;;;;;8.82;1.98;;;17.70;51.40;;;;;;5024020;28;20077;-63
2023/05/03 09:08:06;;;;;;;6.50;1.60;;;17.70;51.30;;;;;;5025199;28;20468;-63
2023/05/03 09:10:36;;;;;;;7.20;1.80;;;17.60;51.50;;;;;;5023405;28;20079;-61
2023/05/03 09:13:02;;;;;;;8.82;1.67;;;17.60;51.90;;;;;;5022640;28;20480;-63
2023/05/03 09:15:30;;;;;;;7.75;2.10;;;17.60;52.30;;;;;;5025087;28;20138;-63
2023/05/03 09:18:17;;;;;;;11.55;2.10;;;17.50;52.80;;;;;;5027612;28;20499;-60
2023/05/03 09:20:50;;;;;;;7.20;1.77;;;17.50;53.60;;;;;;5032389;28;20127;-64
2023/05/03 09:23:27;;;;;;;8.13;2.00;;;17.40;54.10;;;;;;5023864;28;20084;-63
2023/05/03 09:25:53;;;;;;;8.77;2.65;;;17.40;54.40;;;;;;5026774;28;20173;-62
2023/05/03 09:28:20;;;;;;;11.77;2.33;;;17.40;54.50;;;;;;5026139;28;20407;-63
2023/05/03 09:30:49;;;;;;;7.15;2.30;;;17.40;54.70;;;;;;5030733;28;20127;-64
2023/05/03 09:33:21;;;;;;;5.85;2.00;;;17.40;54.90;;;;;;5030004;28;20507;-58
2023/05/03 09:35:58;;;;;;;6.43;1.92;;;17.30;55.00;;;;;;5025822;28;20104;-61
2023/05/03 09:38:32;;;;;;;8.38;1.98;;;17.20;55.30;;;;;;5023780;28;20075;-62
2023/05/03 09:41:00;;;;;;;12.73;1.80;;;17.10;55.60;;;;;;5028490;28;20100;-63
2023/05/03 09:43:26;;;;;;;9.50;1.90;;;17.10;55.40;;;;;;5029304;28;20080;-64
2023/05/03 09:46:14;;;;;;;8.82;2.15;;;17.00;55.40;;;;;;5031782;28;20080;-64
2023/05/03 09:48:41;;;;;;;6.18;1.83;;;17.00;55.20;;;;;;5032294;28;20081;-62
2023/05/03 09:51:08;;;;;;;8.85;1.80;;;17.00;55.10;;;;;;5024517;28;20073;-64
2023/05/03 09:53:37;;;;;;;9.15;1.63;;;17.00;55.00;;;;;;5025837;28;20083;-62
2023/05/03 09:56:15;;;;;;;10.50;2.30;;;17.10;55.00;;;;;;5029329;28;20136;-61
2023/05/03 09:58:42;;;;;;;3.58;1.77;;;17.10;55.00;;;;;;5030579;28;20213;-63
2023/05/03 10:01:09;;;;;;;10.48;1.90;;;17.10;54.80;;;;;;5028711;28;20158;-63
2023/05/03 10:03:42;;;;;;;6.32;1.45;;;17.10;54.50;;;;;;5024539;28;20081;-62
2023/05/03 10:06:28;;;;;;;5.00;1.88;;;17.10;54.50;;;;;;5028894;28;20556;-61
2023/05/03 10:09:09;;;;;;;9.13;2.10;;;17.00;54.60;;;;;;5029248;28;20092;-63
2023/05/03 10:11:36;;;;;;;5.40;1.38;;;17.00;54.60;;;;;;5030242;28;20172;-64
2023/05/03 10:14:08;;;;;;;5.53;1.42;;;17.00;54.60;;;;;;5013309;28;20114;-61
2023/05/03 10:16:38;;;;;;;11.15;2.42;;;17.00;54.70;;;;;;5031205;28;20088;-64
2023/05/03 10:19:30;;;;;;;4.63;1.60;;;17.00;54.90;;;;;;5028911;28;20084;-63
2023/05/03 10:21:59;;;;;;;8.82;2.03;;;16.90;55.00;;;;;;5025392;28;20577;-62
2023/05/03 10:24:25;;;;;;;6.25;1.58;;;16.90;55.10;;;;;;5030197;28;20180;-62
2023/05/03 10:26:54;;;;;;;7.15;2.17;;;16.80;55.20;;;;;;5030158;28;20073;-63
2023/05/03 10:29:47;;;;;;;7.97;1.98;;;16.80;55.30;;;;;;5029006;28;20176;-60
2023/05/03 10:32:33;;;;;;;8.18;1.88;;;16.90;55.40;;;;;;5028119;28;20068;-63
2023/05/03 10:35:03;;;;;;;9.95;1.85;;;16.90;55.20;;;;;;5028955;28;20077;-61
2023/05/03 10:37:30;;;;;;;9.98;2.00;;;16.90;55.30;;;;;;4996350;28;20085;-64
2023/05/03 10:40:04;;;;;;;6.07;1.80;;;16.80;55.50;;;;;;5027710;28;20489;-65
2023/05/03 10:42:31;;;;;;;5.07;1.40;;;16.80;55.50;;;;;;5028588;28;20179;-64
2023/05/03 10:45:00;;;;;;;7.95;1.60;;;16.70;55.90;;;;;;5029307;28;20552;-64
2023/05/03 10:47:26;;;;;;;6.32;1.73;;;16.80;55.80;;;;;;5029488;28;20440;-63
2023/05/03 10:50:11;;;;;;;8.23;1.95;;;16.80;55.70;;;;;;5029795;28;20097;-64
2023/05/03 10:52:37;;;;;;;10.52;1.90;;;16.80;56.30;;;;;;5028914;28;20079;-63
2023/05/03 10:55:20;;;;;;;4.03;1.45;;;16.70;55.60;;;;;;5030642;28;20069;-62
2023/05/03 10:57:47;;;;;;;6.38;1.55;;;16.70;55.40;;;;;;5029009;28;20097;-61
2023/05/03 11:00:27;;;;;;;6.32;1.67;;;16.70;55.40;;;;;;5023521;28;20469;-64
2023/05/03 11:03:22;;;;;;;5.53;1.70;;;16.70;55.70;;;;;;5029774;28;20147;-64
2023/05/03 11:05:49;;;;;;;8.93;1.70;;;16.60;55.40;;;;;;5027509;28;20179;-64
2023/05/03 11:08:24;;;;;;;8.60;1.42;;;16.60;55.70;;;;;;5027089;28;20131;-64
2023/05/03 11:10:58;;;;;;;8.68;1.40;;;16.60;55.80;;;;;;5025749;28;20431;-64
2023/05/03 11:13:25;;;;;;;9.10;1.80;;;16.60;55.70;;;;;;5027411;28;20073;-64
2023/05/03 11:15:55;;;;;;;10.25;1.88;;;16.60;56.00;;;;;;5028859;28;20076;-63
2023/05/03 11:18:22;;;;;;;6.75;1.77;;;16.60;55.70;;;;;;5020978;28;20541;-62
2023/05/03 11:20:49;;;;;;;14.20;2.17;;;16.60;55.60;;;;;;5026973;28;20093;-62
2023/05/03 11:23:16;;;;;;;7.88;1.88;;;16.50;55.50;;;;;;5027047;28;20088;-61
2023/05/03 11:25:42;;;;;;;7.90;1.92;;;16.50;55.70;;;;;;5026798;28;20070;-63
2023/05/03 11:28:08;;;;;;;;;;;16.60;55.70;;;;;;5030978;28;20074;-62
2023/05/03 11:30:36;;;;;;;8.20;1.70;;;16.50;55.50;;;;;;5028978;28;20473;-63
2023/05/03 11:33:03;;;;;;;8.48;1.80;;;16.50;55.60;;;;;;5018128;28;20169;-61
2023/05/03 11:35:30;;;;;;;7.45;1.75;;;16.50;56.00;;;;;;5028452;28;20076;-63
2023/05/03 11:37:57;;;;;;;8.57;1.95;;;16.50;56.10;;;;;;5027828;28;20541;-62
2023/05/03 11:40:23;;;;;;;7.63;1.85;;;16.50;55.70;;;;;;5028724;28;20089;-63
2023/05/03 11:42:54;;;;;;;11.55;2.17;;;16.50;55.70;;;;;;5027481;28;20105;-62
2023/05/03 11:45:30;;;;;;;6.40;1.75;;;16.40;55.90;;;;;;5028337;28;20073;-63
2023/05/03 11:47:57;;;;;;;4.20;1.55;;;16.40;55.80;;;;;;5028920;28;20168;-62
2023/05/03 11:50:50;;;;;;;7.03;1.88;;;16.40;55.90;;;;;;5016668;28;20082;-64
2023/05/03 11:53:17;;;;;;;5.63;1.65;;;16.30;56.00;;;;;;5027793;28;20139;-62
2023/05/03 11:55:46;;;;;;;7.32;1.38;;;16.30;56.20;;;;;;5027103;28;20551;-64
2023/05/03 11:58:13;;;;;;;8.30;1.90;;;16.30;56.40;;;;;;5027553;28;20096;-62
2023/05/03 12:00:49;;;;;;;5.03;1.67;;;16.30;56.40;;;;;;5029404;28;20092;-63
2023/05/03 12:03:23;;;;;;;5.40;1.92;;;16.30;56.70;;;;;;5025165;28;20073;-64
2023/05/03 12:05:51;;;;;;;9.93;1.70;;;16.30;56.70;;;;;;5026738;28;20429;-64
2023/05/03 12:08:20;;;;;;;5.75;1.50;;;16.20;56.90;;;;;;5027030;28;20101;-61
2023/05/03 12:10:49;;;;;;;5.70;1.52;;;16.20;56.90;;;;;;5028667;28;20098;-61
2023/05/03 12:13:27;;;;;;;5.05;1.63;;;16.20;57.00;;;;;;5029204;28;20606;-61
2023/05/03 12:16:02;;;;;;;8.50;1.77;;;16.20;57.10;;;;;;5029148;28;20159;-64
2023/05/03 12:18:45;;;;;;;8.88;1.63;;;16.20;57.10;;;;;;5028635;28;20111;-65
2023/05/03 12:21:14;;;;;;;5.03;1.73;;;16.20;57.30;;;;;;5028190;28;20526;-64
2023/05/03 12:23:41;;;;;;;5.75;2.03;;;16.10;57.30;;;;;;5029602;28;20142;-62
2023/05/03 12:26:07;;;;;;;4.47;1.85;;;16.10;57.70;;;;;;5026711;28;20066;-61
2023/05/03 12:28:34;;;;;;;8.90;2.03;;;16.00;57.90;;;;;;5026752;28;20076;-63
2023/05/03 12:31:00;;;;;;;6.78;1.63;;;16.00;58.20;;;;;;5026870;28;20541;-63
2023/05/03 12:33:26;;;;;;;7.30;1.67;;;16.00;58.30;;;;;;5026664;28;20084;-64
2023/05/03 12:35:53;;;;;;;7.35;1.90;;;16.00;58.30;;;;;;5028692;28;20135;-64
2023/05/03 12:38:19;;;;;;;8.73;1.90;;;15.90;58.50;;;;;;5029551;28;20070;-64
2023/05/03 12:40:46;;;;;;;;;;;15.90;58.70;;;;;;5026575;28;20093;-63
2023/05/03 12:43:13;;;;;;;6.18;2.00;;;15.90;58.50;;;;;;5026189;28;20431;-62
2023/05/03 12:45:39;;;;;;;4.85;1.70;;;15.90;58.70;;;;;;5021806;28;20462;-64
2023/05/03 12:48:06;;;;;;;7.88;2.00;;;15.90;58.90;;;;;;5025402;28;20070;-64